map of KSNC home
KSNC - Airport
Location
City:  Chester, Connecticut, United States
ICAO:KSNC
FAA LID:SNC

Details
Type:Airport (Airfield)
Use:Public/Civil
Latitude:4123'01"N (41.383709)
Longitude:7230'21"W (-72.505786)
Datum:WGS 1984
Elevation:416 ft (127 m)
Variation:13.63W (WMM2015v2 magnetic declination)
0.07 annual change
Runways:1
Longest:2722 × 50 ft (830 × 15 m), paved

Time
Time Zone:UTC-5 (DST-4)
Local Time:

Weather
METAR:KSNC 041415Z AUTO 23008KT 9SM CLR 07/00 A3008 RMK AO2

Related Locations
Nearby:
Farthest:YAUG: 11794 mi / 18980 km
Augusta [Augusta Airport], WA, AU

Find:

   beyond  
but within

Other Information
Maps:
NOTAMs:
Links:
Sources:

  
  • flag of United States
  • flag of Connecticut
  

Sectional Chart

Flight Planning
at skyvector.com

Satellite Image

Google Maps Satellite view

 

Copyright © 2004-2019 Karl L. Swartz. All rights reserved.
The Great Circle Mapper name and logo are trademarks of the Great Circle Mapper.
All other trademarks mentioned herein belong to their respective owners.
Please see credits for attibutions and further copyright information.

  Follow gcmap on Facebook Follow gcmap on Twitter GCmap on LinkedIn

hCard Microformat

Geo Microformat